Lawrence, KS

11:48 AM CDT on May 27, 2015 (GMT -0500)
Forbes | | Change Station
CLOSE
Current Station
Airport
Location: Topeka Forbes,
Elevation: 1079 ft
Nearby Weather Stations

Elev 1079 ft 38.95 °N, 95.66 °W | Updated 55 minutes ago

Clear
Clear
76 °F
Feels Like 76 °F
N
5
Wind Variable Wind from NNE

Today
High -- | Low -- °F
--% Chance of Precip.
Yesterday
High -- | Low -- °F
Precip. -- in
5:59 AM 8:36 PM
Waxing Gibbous, 68% visible
Pressure 30.07 in
Visibility 10.0 miles
Clouds Clear
Dew Point 53 °F
Humidity 45%
Rainfall 0.00 in
Snow Depth Not available.
UV 9 out of 12
Pollen 8.30 out of 12
Air Quality Not available.
Flu Activity No Activity
METAR KFOE 271553Z 03004KT 10SM CLR 24/12 A3009 RMK AO2 SLP182 T02440117

More Conditions Fewer Conditions

Pressure 30.07 in
Visibility 10.0 miles
Clouds Clear
Dew Point 53 °F
Humidity 45%
Rainfall 0.00 in
Snow Depth Not available.
UV 9 out of 12
Pollen 8.30 out of 12
Air Quality Not available.
Flu Activity No Activity
METAR KFOE 271553Z 03004KT 10SM CLR 24/12 A3009 RMK AO2 SLP182 T02440117

More Conditions Fewer Conditions

10-Day Weather Forecast

Almanac

Astronomy

May. 27, 2015 Rise Set
Actual Time
Civil Twilight
Nautical Twilight
Astronomical Twilight
Moon
Length of Visible Light
Length of Day
Tomorrow will be .
, % of the Moon is Illuminated

Today's Extremes

State Highs State Lows

Community

WunderPhotos

Upload Photos

1,824,720 photos uploaded!

WunderBlogs® & News

Nearby

Air Quality

  Air Quality AQ Index Pollutant
Not available.

Snow Depth

Station Depth Elevation

Earthquake Activity

City Distance Mag. Time & Date
Minimum magnitude displayed is 2.5.

Coastal Water Temperatures

Place Temperature

Stations

Nearby Weather Stations

Station Location Temp. Windchill Dew Point Humidity Wind Precip. Elev Updated Type